sensor_id;sensor_type;location;lat;lon;timestamp;P1;durP1;ratioP1;P2;durP2;ratioP2
12880;SDS011;6508;53.786;9.996;2022-09-29T00:02:15;51.38;;;26.33;;
12880;SDS011;6508;53.786;9.996;2022-09-29T00:04:43;51.47;;;26.10;;
12880;SDS011;6508;53.786;9.996;2022-09-29T00:07:11;48.30;;;24.67;;
12880;SDS011;6508;53.786;9.996;2022-09-29T00:09:40;53.38;;;25.73;;
12880;SDS011;6508;53.786;9.996;2022-09-29T00:12:07;57.97;;;26.30;;
12880;SDS011;6508;53.786;9.996;2022-09-29T00:14:37;48.47;;;25.30;;
12880;SDS011;6508;53.786;9.996;2022-09-29T00:17:08;52.00;;;24.33;;
12880;SDS011;6508;53.786;9.996;2022-09-29T00:19:35;51.63;;;27.05;;
12880;SDS011;6508;53.786;9.996;2022-09-29T00:22:03;56.63;;;26.05;;
12880;SDS011;6508;53.786;9.996;2022-09-29T00:24:30;51.83;;;25.98;;
12880;SDS011;6508;53.786;9.996;2022-09-29T00:27:00;51.70;;;25.92;;
12880;SDS011;6508;53.786;9.996;2022-09-29T00:29:27;49.63;;;25.10;;
12880;SDS011;6508;53.786;9.996;2022-09-29T00:31:55;51.67;;;25.35;;
12880;SDS011;6508;53.786;9.996;2022-09-29T00:34:23;48.42;;;24.92;;
12880;SDS011;6508;53.786;9.996;2022-09-29T00:36:50;50.95;;;25.20;;
12880;SDS011;6508;53.786;9.996;2022-09-29T00:39:18;52.33;;;26.55;;
12880;SDS011;6508;53.786;9.996;2022-09-29T00:41:45;55.60;;;27.20;;
12880;SDS011;6508;53.786;9.996;2022-09-29T00:46:57;53.97;;;26.02;;
12880;SDS011;6508;53.786;9.996;2022-09-29T00:49:27;50.92;;;25.45;;
12880;SDS011;6508;53.786;9.996;2022-09-29T00:51:56;49.85;;;25.92;;
12880;SDS011;6508;53.786;9.996;2022-09-29T00:54:25;48.78;;;25.65;;
12880;SDS011;6508;53.786;9.996;2022-09-29T00:56:55;58.40;;;27.80;;
12880;SDS011;6508;53.786;9.996;2022-09-29T00:59:23;51.33;;;24.77;;
12880;SDS011;6508;53.786;9.996;2022-09-29T01:01:53;55.60;;;26.35;;
12880;SDS011;6508;53.786;9.996;2022-09-29T01:04:22;48.15;;;24.42;;
12880;SDS011;6508;53.786;9.996;2022-09-29T01:06:52;49.78;;;25.30;;
12880;SDS011;6508;53.786;9.996;2022-09-29T01:09:20;48.50;;;25.65;;
12880;SDS011;6508;53.786;9.996;2022-09-29T01:11:50;52.10;;;25.77;;
12880;SDS011;6508;53.786;9.996;2022-09-29T01:14:20;51.75;;;25.13;;
12880;SDS011;6508;53.786;9.996;2022-09-29T01:16:48;49.38;;;25.23;;
12880;SDS011;6508;53.786;9.996;2022-09-29T01:19:16;50.85;;;25.05;;
12880;SDS011;6508;53.786;9.996;2022-09-29T01:21:50;52.30;;;24.65;;
12880;SDS011;6508;53.786;9.996;2022-09-29T01:24:23;48.20;;;24.17;;
12880;SDS011;6508;53.786;9.996;2022-09-29T01:27:04;50.95;;;25.35;;
12880;SDS011;6508;53.786;9.996;2022-09-29T01:29:41;54.10;;;25.33;;
12880;SDS011;6508;53.786;9.996;2022-09-29T01:32:17;52.35;;;25.60;;
12880;SDS011;6508;53.786;9.996;2022-09-29T01:34:47;46.47;;;24.27;;
12880;SDS011;6508;53.786;9.996;2022-09-29T01:37:20;47.03;;;23.33;;
12880;SDS011;6508;53.786;9.996;2022-09-29T01:39:50;59.30;;;26.05;;
12880;SDS011;6508;53.786;9.996;2022-09-29T01:42:21;55.53;;;25.38;;
12880;SDS011;6508;53.786;9.996;2022-09-29T01:44:49;55.22;;;25.63;;
12880;SDS011;6508;53.786;9.996;2022-09-29T01:47:22;54.60;;;25.75;;
12880;SDS011;6508;53.786;9.996;2022-09-29T01:49:52;47.45;;;23.50;;
12880;SDS011;6508;53.786;9.996;2022-09-29T01:52:21;51.65;;;25.13;;
12880;SDS011;6508;53.786;9.996;2022-09-29T01:54:51;55.25;;;26.08;;
12880;SDS011;6508;53.786;9.996;2022-09-29T01:57:23;55.22;;;27.27;;
12880;SDS011;6508;53.786;9.996;2022-09-29T01:59:54;51.85;;;25.15;;
12880;SDS011;6508;53.786;9.996;2022-09-29T02:02:26;47.35;;;24.20;;
12880;SDS011;6508;53.786;9.996;2022-09-29T02:04:55;47.22;;;24.00;;
12880;SDS011;6508;53.786;9.996;2022-09-29T02:07:24;48.30;;;24.20;;
12880;SDS011;6508;53.786;9.996;2022-09-29T02:09:55;47.85;;;25.17;;
12880;SDS011;6508;53.786;9.996;2022-09-29T02:12:24;51.08;;;23.48;;
12880;SDS011;6508;53.786;9.996;2022-09-29T02:14:53;48.20;;;23.60;;
12880;SDS011;6508;53.786;9.996;2022-09-29T02:17:22;45.53;;;23.58;;
12880;SDS011;6508;53.786;9.996;2022-09-29T02:19:54;43.15;;;22.42;;
12880;SDS011;6508;53.786;9.996;2022-09-29T02:22:21;50.05;;;23.77;;
12880;SDS011;6508;53.786;9.996;2022-09-29T02:24:50;48.85;;;24.13;;
12880;SDS011;6508;53.786;9.996;2022-09-29T02:27:19;49.67;;;24.15;;
12880;SDS011;6508;53.786;9.996;2022-09-29T02:29:47;42.30;;;23.30;;
12880;SDS011;6508;53.786;9.996;2022-09-29T02:32:15;47.88;;;23.58;;
12880;SDS011;6508;53.786;9.996;2022-09-29T02:34:42;42.85;;;22.25;;
12880;SDS011;6508;53.786;9.996;2022-09-29T02:37:20;42.38;;;22.25;;
12880;SDS011;6508;53.786;9.996;2022-09-29T02:39:52;43.90;;;22.48;;
12880;SDS011;6508;53.786;9.996;2022-09-29T02:42:23;43.45;;;22.38;;
12880;SDS011;6508;53.786;9.996;2022-09-29T02:44:56;46.83;;;23.45;;
12880;SDS011;6508;53.786;9.996;2022-09-29T02:47:32;39.70;;;20.85;;
12880;SDS011;6508;53.786;9.996;2022-09-29T02:50:16;39.85;;;21.02;;
12880;SDS011;6508;53.786;9.996;2022-09-29T02:52:47;40.80;;;20.85;;
12880;SDS011;6508;53.786;9.996;2022-09-29T02:55:21;36.97;;;20.35;;
12880;SDS011;6508;53.786;9.996;2022-09-29T02:57:52;38.90;;;20.60;;
12880;SDS011;6508;53.786;9.996;2022-09-29T03:00:22;44.28;;;22.90;;
12880;SDS011;6508;53.786;9.996;2022-09-29T03:02:50;40.50;;;21.55;;
12880;SDS011;6508;53.786;9.996;2022-09-29T03:05:19;46.58;;;22.30;;
12880;SDS011;6508;53.786;9.996;2022-09-29T03:07:49;42.42;;;22.52;;
12880;SDS011;6508;53.786;9.996;2022-09-29T03:10:16;42.70;;;22.60;;
12880;SDS011;6508;53.786;9.996;2022-09-29T03:12:44;42.55;;;21.33;;
12880;SDS011;6508;53.786;9.996;2022-09-29T03:15:12;43.97;;;22.35;;
12880;SDS011;6508;53.786;9.996;2022-09-29T03:17:40;43.22;;;21.42;;
12880;SDS011;6508;53.786;9.996;2022-09-29T03:20:08;42.03;;;21.90;;
12880;SDS011;6508;53.786;9.996;2022-09-29T03:22:36;41.65;;;21.67;;
12880;SDS011;6508;53.786;9.996;2022-09-29T03:25:05;40.13;;;21.20;;
12880;SDS011;6508;53.786;9.996;2022-09-29T03:27:33;42.00;;;21.98;;
12880;SDS011;6508;53.786;9.996;2022-09-29T03:30:02;39.00;;;21.13;;
12880;SDS011;6508;53.786;9.996;2022-09-29T03:32:29;45.58;;;23.40;;
12880;SDS011;6508;53.786;9.996;2022-09-29T03:34:57;45.65;;;22.27;;
12880;SDS011;6508;53.786;9.996;2022-09-29T03:37:24;43.33;;;22.02;;
12880;SDS011;6508;53.786;9.996;2022-09-29T03:39:52;43.28;;;21.88;;
12880;SDS011;6508;53.786;9.996;2022-09-29T03:42:21;44.25;;;21.60;;
12880;SDS011;6508;53.786;9.996;2022-09-29T03:44:49;46.65;;;22.17;;
12880;SDS011;6508;53.786;9.996;2022-09-29T03:47:17;40.50;;;22.35;;
12880;SDS011;6508;53.786;9.996;2022-09-29T03:49:44;43.13;;;23.10;;
12880;SDS011;6508;53.786;9.996;2022-09-29T03:52:12;47.03;;;23.83;;
12880;SDS011;6508;53.786;9.996;2022-09-29T03:54:39;43.30;;;23.02;;
12880;SDS011;6508;53.786;9.996;2022-09-29T03:57:07;48.70;;;23.55;;
12880;SDS011;6508;53.786;9.996;2022-09-29T03:59:36;46.53;;;23.17;;
12880;SDS011;6508;53.786;9.996;2022-09-29T04:02:10;46.03;;;23.00;;
12880;SDS011;6508;53.786;9.996;2022-09-29T04:04:37;46.55;;;22.23;;
12880;SDS011;6508;53.786;9.996;2022-09-29T04:07:05;46.63;;;23.00;;
12880;SDS011;6508;53.786;9.996;2022-09-29T04:09:32;45.08;;;22.33;;
12880;SDS011;6508;53.786;9.996;2022-09-29T04:12:00;42.60;;;22.08;;
12880;SDS011;6508;53.786;9.996;2022-09-29T04:14:28;44.45;;;22.48;;
12880;SDS011;6508;53.786;9.996;2022-09-29T04:16:56;41.63;;;22.20;;
12880;SDS011;6508;53.786;9.996;2022-09-29T04:19:24;42.00;;;23.02;;
12880;SDS011;6508;53.786;9.996;2022-09-29T04:21:52;41.67;;;21.90;;
12880;SDS011;6508;53.786;9.996;2022-09-29T04:24:19;45.45;;;23.20;;
12880;SDS011;6508;53.786;9.996;2022-09-29T04:26:47;46.17;;;22.17;;
12880;SDS011;6508;53.786;9.996;2022-09-29T04:29:14;50.28;;;24.20;;
12880;SDS011;6508;53.786;9.996;2022-09-29T04:31:42;46.25;;;23.90;;
12880;SDS011;6508;53.786;9.996;2022-09-29T04:34:11;45.33;;;24.15;;
12880;SDS011;6508;53.786;9.996;2022-09-29T04:36:39;44.75;;;22.77;;
12880;SDS011;6508;53.786;9.996;2022-09-29T04:39:07;44.25;;;21.63;;
12880;SDS011;6508;53.786;9.996;2022-09-29T04:41:34;45.38;;;21.52;;
12880;SDS011;6508;53.786;9.996;2022-09-29T04:44:05;41.70;;;22.52;;
12880;SDS011;6508;53.786;9.996;2022-09-29T04:46:32;36.20;;;20.42;;
12880;SDS011;6508;53.786;9.996;2022-09-29T04:49:00;37.80;;;21.17;;
12880;SDS011;6508;53.786;9.996;2022-09-29T04:51:29;34.97;;;19.20;;
12880;SDS011;6508;53.786;9.996;2022-09-29T04:53:56;37.90;;;19.70;;
12880;SDS011;6508;53.786;9.996;2022-09-29T04:56:24;32.95;;;19.15;;
12880;SDS011;6508;53.786;9.996;2022-09-29T04:58:56;41.35;;;20.15;;
12880;SDS011;6508;53.786;9.996;2022-09-29T05:01:24;34.40;;;20.05;;
12880;SDS011;6508;53.786;9.996;2022-09-29T05:03:52;33.70;;;19.58;;
12880;SDS011;6508;53.786;9.996;2022-09-29T05:06:20;31.02;;;18.77;;
12880;SDS011;6508;53.786;9.996;2022-09-29T05:08:49;33.30;;;19.70;;
12880;SDS011;6508;53.786;9.996;2022-09-29T05:11:16;34.47;;;20.05;;
12880;SDS011;6508;53.786;9.996;2022-09-29T05:13:46;35.05;;;19.63;;
12880;SDS011;6508;53.786;9.996;2022-09-29T05:16:14;31.83;;;18.90;;
12880;SDS011;6508;53.786;9.996;2022-09-29T05:18:42;34.97;;;19.95;;
12880;SDS011;6508;53.786;9.996;2022-09-29T05:21:09;32.30;;;19.55;;
12880;SDS011;6508;53.786;9.996;2022-09-29T05:23:56;37.75;;;19.77;;
12880;SDS011;6508;53.786;9.996;2022-09-29T05:26:23;44.33;;;21.40;;
12880;SDS011;6508;53.786;9.996;2022-09-29T05:28:51;39.42;;;21.90;;
12880;SDS011;6508;53.786;9.996;2022-09-29T05:31:19;39.67;;;21.83;;
12880;SDS011;6508;53.786;9.996;2022-09-29T05:33:47;36.88;;;21.73;;
12880;SDS011;6508;53.786;9.996;2022-09-29T05:36:14;44.53;;;22.55;;
12880;SDS011;6508;53.786;9.996;2022-09-29T05:38:42;37.17;;;21.50;;
12880;SDS011;6508;53.786;9.996;2022-09-29T05:41:11;38.35;;;21.73;;
12880;SDS011;6508;53.786;9.996;2022-09-29T05:43:39;37.78;;;21.23;;
12880;SDS011;6508;53.786;9.996;2022-09-29T05:46:07;41.13;;;22.77;;
12880;SDS011;6508;53.786;9.996;2022-09-29T05:48:36;36.38;;;21.58;;
12880;SDS011;6508;53.786;9.996;2022-09-29T05:51:07;38.85;;;22.48;;
12880;SDS011;6508;53.786;9.996;2022-09-29T05:53:35;39.70;;;22.55;;
12880;SDS011;6508;53.786;9.996;2022-09-29T05:56:03;37.70;;;21.10;;
12880;SDS011;6508;53.786;9.996;2022-09-29T05:58:32;39.35;;;22.38;;
12880;SDS011;6508;53.786;9.996;2022-09-29T06:01:03;36.25;;;21.88;;
12880;SDS011;6508;53.786;9.996;2022-09-29T06:03:31;35.92;;;21.95;;
12880;SDS011;6508;53.786;9.996;2022-09-29T06:06:03;40.58;;;22.08;;
12880;SDS011;6508;53.786;9.996;2022-09-29T06:08:31;37.92;;;22.52;;
12880;SDS011;6508;53.786;9.996;2022-09-29T06:11:03;39.45;;;22.42;;
12880;SDS011;6508;53.786;9.996;2022-09-29T06:13:32;40.00;;;23.15;;
12880;SDS011;6508;53.786;9.996;2022-09-29T06:16:01;40.83;;;23.98;;
12880;SDS011;6508;53.786;9.996;2022-09-29T06:18:29;38.38;;;24.23;;
12880;SDS011;6508;53.786;9.996;2022-09-29T06:20:59;38.33;;;22.73;;
12880;SDS011;6508;53.786;9.996;2022-09-29T06:23:26;36.45;;;23.02;;
12880;SDS011;6508;53.786;9.996;2022-09-29T06:25:54;43.10;;;23.85;;
12880;SDS011;6508;53.786;9.996;2022-09-29T06:28:22;43.03;;;23.25;;
12880;SDS011;6508;53.786;9.996;2022-09-29T06:30:51;45.33;;;24.38;;
12880;SDS011;6508;53.786;9.996;2022-09-29T06:33:18;40.42;;;24.13;;
12880;SDS011;6508;53.786;9.996;2022-09-29T06:35:47;38.10;;;23.95;;
12880;SDS011;6508;53.786;9.996;2022-09-29T06:38:32;34.97;;;22.75;;
12880;SDS011;6508;53.786;9.996;2022-09-29T06:41:00;38.67;;;22.80;;
12880;SDS011;6508;53.786;9.996;2022-09-29T06:43:27;36.53;;;23.25;;
12880;SDS011;6508;53.786;9.996;2022-09-29T06:45:56;38.78;;;23.25;;
12880;SDS011;6508;53.786;9.996;2022-09-29T06:48:24;40.83;;;24.27;;
12880;SDS011;6508;53.786;9.996;2022-09-29T06:50:53;39.55;;;24.33;;
12880;SDS011;6508;53.786;9.996;2022-09-29T06:53:35;42.63;;;23.83;;
12880;SDS011;6508;53.786;9.996;2022-09-29T06:56:04;38.22;;;22.88;;
12880;SDS011;6508;53.786;9.996;2022-09-29T06:58:32;38.05;;;23.25;;
12880;SDS011;6508;53.786;9.996;2022-09-29T07:01:02;38.22;;;23.02;;
12880;SDS011;6508;53.786;9.996;2022-09-29T07:03:31;39.10;;;23.75;;
12880;SDS011;6508;53.786;9.996;2022-09-29T07:06:00;38.90;;;23.02;;
12880;SDS011;6508;53.786;9.996;2022-09-29T07:08:46;38.33;;;23.52;;
12880;SDS011;6508;53.786;9.996;2022-09-29T07:11:13;39.05;;;23.10;;
12880;SDS011;6508;53.786;9.996;2022-09-29T07:13:41;35.83;;;23.15;;
12880;SDS011;6508;53.786;9.996;2022-09-29T07:16:11;39.42;;;23.45;;
12880;SDS011;6508;53.786;9.996;2022-09-29T07:18:39;34.42;;;22.98;;
12880;SDS011;6508;53.786;9.996;2022-09-29T07:21:07;37.53;;;23.73;;
12880;SDS011;6508;53.786;9.996;2022-09-29T07:23:35;38.45;;;23.52;;
12880;SDS011;6508;53.786;9.996;2022-09-29T07:26:03;39.47;;;24.15;;
12880;SDS011;6508;53.786;9.996;2022-09-29T07:28:31;42.30;;;25.02;;
12880;SDS011;6508;53.786;9.996;2022-09-29T07:30:59;49.22;;;32.08;;
12880;SDS011;6508;53.786;9.996;2022-09-29T07:33:41;39.35;;;24.35;;
12880;SDS011;6508;53.786;9.996;2022-09-29T07:36:09;34.42;;;23.33;;
12880;SDS011;6508;53.786;9.996;2022-09-29T07:38:37;36.17;;;23.83;;
12880;SDS011;6508;53.786;9.996;2022-09-29T07:41:05;36.38;;;23.45;;
12880;SDS011;6508;53.786;9.996;2022-09-29T07:43:33;34.80;;;22.48;;
12880;SDS011;6508;53.786;9.996;2022-09-29T07:46:01;32.58;;;21.80;;
12880;SDS011;6508;53.786;9.996;2022-09-29T07:48:29;33.15;;;21.75;;
12880;SDS011;6508;53.786;9.996;2022-09-29T07:51:02;29.75;;;20.40;;
12880;SDS011;6508;53.786;9.996;2022-09-29T07:53:30;32.30;;;21.27;;
12880;SDS011;6508;53.786;9.996;2022-09-29T07:56:01;28.33;;;19.58;;
12880;SDS011;6508;53.786;9.996;2022-09-29T07:58:29;27.25;;;19.60;;
12880;SDS011;6508;53.786;9.996;2022-09-29T08:00:57;27.55;;;19.58;;
12880;SDS011;6508;53.786;9.996;2022-09-29T08:03:25;27.42;;;18.67;;
12880;SDS011;6508;53.786;9.996;2022-09-29T08:05:55;24.25;;;17.98;;
12880;SDS011;6508;53.786;9.996;2022-09-29T08:08:25;26.77;;;17.50;;
12880;SDS011;6508;53.786;9.996;2022-09-29T08:10:59;26.65;;;18.00;;
12880;SDS011;6508;53.786;9.996;2022-09-29T08:13:27;21.95;;;17.52;;
12880;SDS011;6508;53.786;9.996;2022-09-29T08:15:56;20.17;;;16.13;;
12880;SDS011;6508;53.786;9.996;2022-09-29T08:18:23;22.30;;;17.08;;
12880;SDS011;6508;53.786;9.996;2022-09-29T08:20:51;21.88;;;16.65;;
12880;SDS011;6508;53.786;9.996;2022-09-29T08:23:19;21.25;;;17.45;;
12880;SDS011;6508;53.786;9.996;2022-09-29T08:25:49;22.33;;;16.98;;
12880;SDS011;6508;53.786;9.996;2022-09-29T08:28:27;23.20;;;17.42;;
12880;SDS011;6508;53.786;9.996;2022-09-29T08:31:00;20.17;;;15.70;;
12880;SDS011;6508;53.786;9.996;2022-09-29T08:33:30;22.60;;;16.42;;
12880;SDS011;6508;53.786;9.996;2022-09-29T08:35:58;20.42;;;16.08;;
12880;SDS011;6508;53.786;9.996;2022-09-29T08:38:26;15.75;;;13.88;;
12880;SDS011;6508;53.786;9.996;2022-09-29T08:40:55;17.13;;;14.93;;
12880;SDS011;6508;53.786;9.996;2022-09-29T08:43:24;17.10;;;14.00;;
12880;SDS011;6508;53.786;9.996;2022-09-29T08:46:02;16.38;;;13.98;;
12880;SDS011;6508;53.786;9.996;2022-09-29T08:48:32;16.67;;;14.32;;
12880;SDS011;6508;53.786;9.996;2022-09-29T08:51:01;14.60;;;13.10;;
12880;SDS011;6508;53.786;9.996;2022-09-29T08:53:30;16.08;;;13.20;;
12880;SDS011;6508;53.786;9.996;2022-09-29T08:56:01;14.02;;;12.55;;
12880;SDS011;6508;53.786;9.996;2022-09-29T08:58:29;15.15;;;13.55;;
12880;SDS011;6508;53.786;9.996;2022-09-29T09:01:00;13.68;;;12.38;;
12880;SDS011;6508;53.786;9.996;2022-09-29T09:03:49;15.23;;;13.05;;
12880;SDS011;6508;53.786;9.996;2022-09-29T09:06:20;14.48;;;13.02;;
12880;SDS011;6508;53.786;9.996;2022-09-29T09:08:57;14.10;;;12.77;;
12880;SDS011;6508;53.786;9.996;2022-09-29T09:11:32;14.20;;;12.70;;
12880;SDS011;6508;53.786;9.996;2022-09-29T09:14:05;13.85;;;11.85;;
12880;SDS011;6508;53.786;9.996;2022-09-29T09:16:42;13.40;;;12.00;;
12880;SDS011;6508;53.786;9.996;2022-09-29T09:19:31;14.18;;;12.10;;
12880;SDS011;6508;53.786;9.996;2022-09-29T09:22:05;14.25;;;11.93;;
12880;SDS011;6508;53.786;9.996;2022-09-29T09:24:38;14.65;;;13.15;;
12880;SDS011;6508;53.786;9.996;2022-09-29T09:27:09;14.77;;;13.15;;
12880;SDS011;6508;53.786;9.996;2022-09-29T09:29:41;15.45;;;12.20;;
12880;SDS011;6508;53.786;9.996;2022-09-29T09:32:09;14.00;;;12.60;;
12880;SDS011;6508;53.786;9.996;2022-09-29T09:34:39;13.40;;;12.10;;
12880;SDS011;6508;53.786;9.996;2022-09-29T09:37:12;14.60;;;13.15;;
12880;SDS011;6508;53.786;9.996;2022-09-29T09:39:41;13.85;;;12.45;;
12880;SDS011;6508;53.786;9.996;2022-09-29T09:42:14;14.02;;;12.40;;
12880;SDS011;6508;53.786;9.996;2022-09-29T09:44:43;13.40;;;12.05;;
12880;SDS011;6508;53.786;9.996;2022-09-29T09:47:17;14.23;;;12.25;;
12880;SDS011;6508;53.786;9.996;2022-09-29T09:49:48;14.25;;;11.77;;
12880;SDS011;6508;53.786;9.996;2022-09-29T09:52:19;14.43;;;12.90;;
12880;SDS011;6508;53.786;9.996;2022-09-29T09:54:48;20.67;;;17.17;;
12880;SDS011;6508;53.786;9.996;2022-09-29T09:57:32;12.55;;;11.32;;
12880;SDS011;6508;53.786;9.996;2022-09-29T10:00:04;12.88;;;11.57;;
12880;SDS011;6508;53.786;9.996;2022-09-29T10:02:41;12.63;;;11.30;;
12880;SDS011;6508;53.786;9.996;2022-09-29T10:05:10;12.70;;;11.40;;
12880;SDS011;6508;53.786;9.996;2022-09-29T10:07:38;13.77;;;11.25;;
12880;SDS011;6508;53.786;9.996;2022-09-29T10:10:13;12.35;;;11.18;;
12880;SDS011;6508;53.786;9.996;2022-09-29T10:12:42;12.48;;;11.18;;
12880;SDS011;6508;53.786;9.996;2022-09-29T10:15:16;12.15;;;10.93;;
12880;SDS011;6508;53.786;9.996;2022-09-29T10:17:45;11.70;;;10.57;;
12880;SDS011;6508;53.786;9.996;2022-09-29T10:20:18;13.18;;;11.88;;
12880;SDS011;6508;53.786;9.996;2022-09-29T10:22:57;13.27;;;11.95;;
12880;SDS011;6508;53.786;9.996;2022-09-29T10:25:38;12.52;;;11.32;;
12880;SDS011;6508;53.786;9.996;2022-09-29T10:28:12;12.60;;;11.30;;
12880;SDS011;6508;53.786;9.996;2022-09-29T10:30:40;13.95;;;12.52;;
12880;SDS011;6508;53.786;9.996;2022-09-29T10:33:10;13.98;;;12.10;;
12880;SDS011;6508;53.786;9.996;2022-09-29T10:35:40;14.35;;;12.88;;
12880;SDS011;6508;53.786;9.996;2022-09-29T10:38:14;13.82;;;12.43;;
12880;SDS011;6508;53.786;9.996;2022-09-29T10:40:52;12.90;;;11.60;;
12880;SDS011;6508;53.786;9.996;2022-09-29T10:43:22;16.67;;;12.55;;
12880;SDS011;6508;53.786;9.996;2022-09-29T10:45:50;25.52;;;19.77;;
12880;SDS011;6508;53.786;9.996;2022-09-29T10:48:23;22.95;;;18.15;;
12880;SDS011;6508;53.786;9.996;2022-09-29T10:50:52;15.70;;;13.63;;
12880;SDS011;6508;53.786;9.996;2022-09-29T10:53:22;14.25;;;12.75;;
12880;SDS011;6508;53.786;9.996;2022-09-29T10:55:52;14.43;;;12.98;;
12880;SDS011;6508;53.786;9.996;2022-09-29T10:58:23;13.80;;;12.35;;
12880;SDS011;6508;53.786;9.996;2022-09-29T11:01:12;14.85;;;12.52;;
12880;SDS011;6508;53.786;9.996;2022-09-29T11:03:45;12.65;;;11.50;;
12880;SDS011;6508;53.786;9.996;2022-09-29T11:06:13;13.23;;;11.93;;
12880;SDS011;6508;53.786;9.996;2022-09-29T11:08:58;14.15;;;12.85;;
12880;SDS011;6508;53.786;9.996;2022-09-29T11:11:27;13.68;;;12.27;;
12880;SDS011;6508;53.786;9.996;2022-09-29T11:13:56;14.35;;;12.98;;
12880;SDS011;6508;53.786;9.996;2022-09-29T11:16:29;14.82;;;13.32;;
12880;SDS011;6508;53.786;9.996;2022-09-29T11:18:58;15.38;;;13.80;;
12880;SDS011;6508;53.786;9.996;2022-09-29T11:21:33;15.48;;;12.93;;
12880;SDS011;6508;53.786;9.996;2022-09-29T11:24:04;15.20;;;13.05;;
12880;SDS011;6508;53.786;9.996;2022-09-29T11:26:36;13.63;;;12.23;;
12880;SDS011;6508;53.786;9.996;2022-09-29T11:29:13;13.27;;;11.88;;
12880;SDS011;6508;53.786;9.996;2022-09-29T11:31:49;14.45;;;13.05;;
12880;SDS011;6508;53.786;9.996;2022-09-29T11:34:23;14.63;;;13.02;;
12880;SDS011;6508;53.786;9.996;2022-09-29T11:36:59;13.20;;;12.02;;
12880;SDS011;6508;53.786;9.996;2022-09-29T11:39:45;13.52;;;12.13;;
12880;SDS011;6508;53.786;9.996;2022-09-29T11:42:21;13.88;;;12.48;;
12880;SDS011;6508;53.786;9.996;2022-09-29T11:44:59;14.48;;;12.13;;
12880;SDS011;6508;53.786;9.996;2022-09-29T11:47:31;12.57;;;11.48;;
12880;SDS011;6508;53.786;9.996;2022-09-29T11:50:07;13.25;;;11.95;;
12880;SDS011;6508;53.786;9.996;2022-09-29T11:52:45;12.38;;;11.18;;
12880;SDS011;6508;53.786;9.996;2022-09-29T11:55:18;11.90;;;10.80;;
12880;SDS011;6508;53.786;9.996;2022-09-29T11:57:54;12.23;;;11.05;;
12880;SDS011;6508;53.786;9.996;2022-09-29T12:00:30;12.00;;;10.80;;
12880;SDS011;6508;53.786;9.996;2022-09-29T12:03:18;12.00;;;10.88;;
12880;SDS011;6508;53.786;9.996;2022-09-29T12:08:38;11.27;;;10.38;;
12880;SDS011;6508;53.786;9.996;2022-09-29T12:11:10;10.90;;;10.00;;
12880;SDS011;6508;53.786;9.996;2022-09-29T12:13:59;11.18;;;10.18;;
12880;SDS011;6508;53.786;9.996;2022-09-29T12:16:34;10.73;;;9.90;;
12880;SDS011;6508;53.786;9.996;2022-09-29T12:19:07;10.25;;;9.10;;
12880;SDS011;6508;53.786;9.996;2022-09-29T12:21:37;9.32;;;8.55;;
12880;SDS011;6508;53.786;9.996;2022-09-29T12:24:09;9.20;;;8.40;;
12880;SDS011;6508;53.786;9.996;2022-09-29T12:26:38;9.63;;;8.82;;
12880;SDS011;6508;53.786;9.996;2022-09-29T12:29:08;9.25;;;8.45;;
12880;SDS011;6508;53.786;9.996;2022-09-29T12:31:45;8.68;;;7.97;;
12880;SDS011;6508;53.786;9.996;2022-09-29T12:34:14;9.07;;;8.27;;
12880;SDS011;6508;53.786;9.996;2022-09-29T12:36:44;10.38;;;9.35;;
12880;SDS011;6508;53.786;9.996;2022-09-29T12:39:21;9.45;;;8.75;;
12880;SDS011;6508;53.786;9.996;2022-09-29T12:41:51;8.93;;;8.23;;
12880;SDS011;6508;53.786;9.996;2022-09-29T12:44:23;9.25;;;8.45;;
12880;SDS011;6508;53.786;9.996;2022-09-29T12:46:57;9.48;;;8.65;;
12880;SDS011;6508;53.786;9.996;2022-09-29T12:49:31;8.80;;;8.10;;
12880;SDS011;6508;53.786;9.996;2022-09-29T12:52:00;17.98;;;16.17;;
12880;SDS011;6508;53.786;9.996;2022-09-29T12:54:30;10.40;;;9.60;;
12880;SDS011;6508;53.786;9.996;2022-09-29T12:56:59;154.73;;;115.53;;
12880;SDS011;6508;53.786;9.996;2022-09-29T12:59:31;9.88;;;8.98;;
12880;SDS011;6508;53.786;9.996;2022-09-29T13:02:07;8.98;;;8.18;;
12880;SDS011;6508;53.786;9.996;2022-09-29T13:04:52;9.68;;;8.77;;
12880;SDS011;6508;53.786;9.996;2022-09-29T13:07:30;8.52;;;7.82;;
12880;SDS011;6508;53.786;9.996;2022-09-29T13:10:13;10.23;;;9.23;;
12880;SDS011;6508;53.786;9.996;2022-09-29T13:12:57;9.57;;;8.68;;
12880;SDS011;6508;53.786;9.996;2022-09-29T13:15:34;10.18;;;9.25;;
12880;SDS011;6508;53.786;9.996;2022-09-29T13:18:15;9.35;;;8.65;;
12880;SDS011;6508;53.786;9.996;2022-09-29T13:20:55;9.10;;;8.38;;
12880;SDS011;6508;53.786;9.996;2022-09-29T13:23:35;10.95;;;8.60;;
12880;SDS011;6508;53.786;9.996;2022-09-29T13:26:08;9.77;;;8.77;;
12880;SDS011;6508;53.786;9.996;2022-09-29T13:28:41;9.70;;;8.85;;
12880;SDS011;6508;53.786;9.996;2022-09-29T13:31:12;10.10;;;9.10;;
12880;SDS011;6508;53.786;9.996;2022-09-29T13:33:46;10.13;;;9.23;;
12880;SDS011;6508;53.786;9.996;2022-09-29T13:36:20;10.32;;;9.38;;
12880;SDS011;6508;53.786;9.996;2022-09-29T13:38:51;10.63;;;9.60;;
12880;SDS011;6508;53.786;9.996;2022-09-29T13:41:31;11.45;;;10.35;;
12880;SDS011;6508;53.786;9.996;2022-09-29T13:44:01;11.52;;;10.57;;
12880;SDS011;6508;53.786;9.996;2022-09-29T13:46:36;10.63;;;9.60;;
12880;SDS011;6508;53.786;9.996;2022-09-29T13:49:14;27.85;;;21.65;;
12880;SDS011;6508;53.786;9.996;2022-09-29T13:51:43;36.20;;;29.85;;
12880;SDS011;6508;53.786;9.996;2022-09-29T13:54:24;19.75;;;17.65;;
12880;SDS011;6508;53.786;9.996;2022-09-29T13:57:06;11.27;;;10.23;;
12880;SDS011;6508;53.786;9.996;2022-09-29T13:59:34;11.98;;;10.88;;
12880;SDS011;6508;53.786;9.996;2022-09-29T14:02:17;13.45;;;12.05;;
12880;SDS011;6508;53.786;9.996;2022-09-29T14:04:51;14.25;;;12.60;;
12880;SDS011;6508;53.786;9.996;2022-09-29T14:07:34;14.15;;;12.75;;
12880;SDS011;6508;53.786;9.996;2022-09-29T14:10:03;14.82;;;13.43;;
12880;SDS011;6508;53.786;9.996;2022-09-29T14:12:32;13.48;;;12.07;;
12880;SDS011;6508;53.786;9.996;2022-09-29T14:15:00;15.48;;;11.95;;
12880;SDS011;6508;53.786;9.996;2022-09-29T14:17:30;11.50;;;10.48;;
12880;SDS011;6508;53.786;9.996;2022-09-29T14:20:02;12.60;;;11.30;;
12880;SDS011;6508;53.786;9.996;2022-09-29T14:22:52;11.43;;;10.32;;
12880;SDS011;6508;53.786;9.996;2022-09-29T14:25:26;10.85;;;9.85;;
12880;SDS011;6508;53.786;9.996;2022-09-29T14:27:57;11.25;;;10.05;;
12880;SDS011;6508;53.786;9.996;2022-09-29T14:30:36;12.13;;;10.50;;
12880;SDS011;6508;53.786;9.996;2022-09-29T14:33:08;12.48;;;10.70;;
12880;SDS011;6508;53.786;9.996;2022-09-29T14:35:39;13.63;;;12.23;;
12880;SDS011;6508;53.786;9.996;2022-09-29T14:38:08;13.15;;;11.95;;
12880;SDS011;6508;53.786;9.996;2022-09-29T14:40:36;13.98;;;12.55;;
12880;SDS011;6508;53.786;9.996;2022-09-29T14:43:05;15.25;;;13.65;;
12880;SDS011;6508;53.786;9.996;2022-09-29T14:45:36;16.00;;;12.77;;
12880;SDS011;6508;53.786;9.996;2022-09-29T14:48:25;13.25;;;11.91;;
12880;SDS011;6508;53.786;9.996;2022-09-29T14:51:15;16.08;;;13.95;;
12880;SDS011;6508;53.786;9.996;2022-09-29T14:54:03;18.73;;;14.90;;
12880;SDS011;6508;53.786;9.996;2022-09-29T14:56:37;15.82;;;13.70;;
12880;SDS011;6508;53.786;9.996;2022-09-29T14:59:10;18.10;;;16.17;;
12880;SDS011;6508;53.786;9.996;2022-09-29T15:02:02;16.25;;;14.57;;
12880;SDS011;6508;53.786;9.996;2022-09-29T15:04:36;16.88;;;15.02;;
12880;SDS011;6508;53.786;9.996;2022-09-29T15:07:08;17.50;;;15.80;;